.
WxDataArchive / Data Records for 2007-03-10
2007-03-09 March 2007 2007-03-11

Data Records for Saturday, 10 March 2007

Time	Temp	Chill	HIndex	Humid	Dewpt	 Wind 	HiWind	WindDir	Rain 	Barom 
-----	----	-----	------	-----	-----	------	------	-------	-----	----- 
00:00	52.3	52.3	52.3	63	40.1	2	5	248	0.00	29.870 
00:05	52.3	52.3	52.3	64	40.5	1	5	248	0.00	29.862 
00:10	52.2	52.2	52.2	65	40.8	0	4	202	0.00	29.855 
00:15	51.9	51.9	51.9	66	40.9	1	2	270	0.00	29.855 
00:20	52.0	52.0	52.0	66	41.0	2	7	248	0.00	29.865 
00:25	52.2	52.2	52.2	66	41.2	2	5	248	0.00	29.871 
00:30	52.5	52.5	52.5	65	41.1	2	6	248	0.00	29.863 
00:35	52.8	52.8	52.8	65	41.4	3	7	248	0.00	29.862 
00:40	52.9	52.9	52.9	65	41.5	3	9	248	0.00	29.857 
00:45	52.9	52.9	52.9	65	41.5	3	7	248	0.00	29.855 
00:50	52.9	52.9	52.9	65	41.5	3	11	225	0.00	29.855 
00:55	52.9	52.9	52.9	65	41.5	3	7	248	0.00	29.858 
01:00	52.8	52.8	52.8	65	41.4	3	7	248	0.00	29.855 
01:05	52.8	52.8	52.8	66	41.8	4	11	248	0.00	29.852 
01:10	52.8	52.8	52.8	67	42.1	4	11	248	0.00	29.854 
01:15	52.6	52.6	52.6	68	42.3	3	5	248	0.00	29.852 
01:20	52.6	52.6	52.6	68	42.3	4	7	248	0.00	29.854 
01:25	52.6	52.6	52.6	68	42.3	3	6	248	0.00	29.852 
01:30	52.5	52.5	52.5	69	42.6	2	4	248	0.00	29.852 
01:35	52.3	52.3	52.3	69	42.4	2	4	248	0.00	29.853 
01:40	52.0	52.0	52.0	70	42.5	1	4	248	0.00	29.853 
01:45	51.9	51.9	51.9	71	42.8	2	4	248	0.00	29.852 
01:50	51.7	51.7	51.7	71	42.6	1	3	248	0.00	29.850 
01:55	51.3	51.3	51.3	72	42.6	1	2	248	0.00	29.851 
02:00	51.0	51.0	51.0	73	42.7	0	1	248	0.00	29.849 
02:05	50.8	50.8	50.8	74	42.8	1	4	248	0.00	29.848 
02:10	50.5	50.5	50.5	75	42.9	1	2	248	0.00	29.849 
02:15	50.2	50.2	50.2	76	42.9	0	2	248	0.00	29.852 
02:20	49.9	49.9	49.9	77	43.0	1	3	248	0.00	29.852 
02:25	49.9	49.9	49.9	77	43.0	1	3	248	0.00	29.851 
02:30	49.9	49.9	49.9	77	43.0	2	5	248	0.00	29.853 
02:35	49.9	49.9	49.9	77	43.0	2	4	248	0.00	29.852 
02:40	49.9	49.9	49.9	77	43.0	2	4	248	0.00	29.851 
02:45	49.8	49.8	49.8	77	42.9	2	5	248	0.00	29.852 
02:50	49.8	49.8	49.8	78	43.2	2	5	248	0.00	29.852 
02:55	49.8	49.8	49.8	78	43.2	1	4	248	0.00	29.851 
03:00	49.6	49.6	49.6	79	43.4	1	4	248	0.00	29.848 
03:05	49.5	49.5	49.5	80	43.6	2	4	248	0.00	29.846 
03:10	49.5	49.5	49.5	80	43.6	2	6	248	0.00	29.845 
03:15	49.4	49.4	49.4	81	43.8	2	3	248	0.00	29.847 
03:20	49.5	49.5	49.5	82	44.2	3	6	248	0.00	29.849 
03:25	49.8	48.6	49.8	83	44.8	4	10	248	0.00	29.850 
03:30	49.9	48.8	49.9	84	45.3	4	11	270	0.00	29.849 
03:35	49.9	48.8	49.9	85	45.6	4	12	248	0.00	29.849 
03:40	50.1	50.1	50.1	86	46.1	4	12	270	0.00	29.849 
03:45	50.1	50.1	50.1	86	46.1	3	11	248	0.00	29.852 
03:50	50.1	50.1	50.1	86	46.1	4	11	248	0.00	29.852 
03:55	49.9	49.9	49.9	87	46.2	3	6	270	0.00	29.853 
04:00	49.8	48.6	49.8	88	46.4	4	10	270	0.00	29.860 
04:05	49.6	48.4	49.6	88	46.2	4	12	270	0.00	29.859 
04:10	49.5	48.3	49.5	88	46.1	4	11	270	0.00	29.861 
04:15	49.5	48.3	49.5	89	46.4	4	14	270	0.00	29.865 
04:20	49.4	49.4	49.4	89	46.3	3	11	270	0.00	29.865 
04:25	49.2	47.9	49.2	89	46.1	4	11	248	0.00	29.868 
04:30	49.1	49.1	49.1	90	46.3	3	7	248	0.00	29.869 
04:35	48.9	47.6	48.9	90	46.1	4	12	248	0.00	29.870 
04:40	48.8	48.8	48.8	90	46.0	3	7	248	0.00	29.872 
04:45	48.6	48.6	48.6	91	46.1	3	7	248	0.00	29.874 
04:50	48.5	48.5	48.5	91	46.0	2	7	248	0.00	29.876 
04:55	48.3	48.3	48.3	91	45.8	3	12	248	0.00	29.880 
05:00	48.2	48.2	48.2	92	46.0	3	10	248	0.00	29.882 
05:05	48.0	48.0	48.0	92	45.8	3	6	248	0.00	29.884 
05:10	47.9	47.9	47.9	92	45.7	3	9	248	0.00	29.885 
05:15	47.7	47.7	47.7	92	45.5	3	9	270	0.00	29.888 
05:20	47.6	47.6	47.6	92	45.4	2	5	270	0.00	29.889 
05:25	47.6	47.6	47.6	93	45.7	2	5	248	0.00	29.890 
05:30	47.4	47.4	47.4	93	45.5	2	5	248	0.00	29.895 
05:35	47.3	47.3	47.3	93	45.4	2	5	248	0.00	29.896 
05:40	47.1	47.1	47.1	93	45.2	2	5	248	0.00	29.899 
05:45	47.0	47.0	47.0	93	45.1	2	5	270	0.00	29.902 
05:50	46.8	46.8	46.8	94	45.2	1	3	248	0.00	29.905 
05:55	46.8	46.8	46.8	94	45.2	2	4	270	0.00	29.908 
06:00	46.7	46.7	46.7	93	44.8	1	2	270	0.00	29.911 
06:05	46.5	46.5	46.5	93	44.6	2	7	248	0.00	29.917 
06:10	46.4	46.4	46.4	93	44.5	3	6	270	0.00	29.920 
06:15	46.2	46.2	46.2	92	44.0	2	6	270	0.00	29.920 
06:20	46.1	46.1	46.1	92	43.9	2	4	270	0.00	29.922 
06:25	46.1	46.1	46.1	92	43.9	2	4	270	0.00	29.927 
06:30	45.8	45.8	45.8	92	43.6	1	3	270	0.00	29.929 
06:35	45.7	45.7	45.7	92	43.5	3	6	270	0.00	29.933 
06:40	45.4	45.4	45.4	91	42.9	3	7	270	0.00	29.937 
06:45	45.2	45.2	45.2	91	42.7	3	9	270	0.00	29.949 
06:50	45.1	45.1	45.1	90	42.3	3	5	270	0.00	29.949 
06:55	44.8	44.8	44.8	89	41.8	2	6	270	0.00	29.950 
07:00	44.8	44.8	44.8	89	41.8	3	9	270	0.00	29.951 
07:05	44.6	44.6	44.6	88	41.3	3	6	270	0.00	29.954 
07:10	44.5	44.5	44.5	88	41.2	2	6	248	0.00	29.954 
07:15	44.2	44.2	44.2	88	40.9	2	4	270	0.00	29.958 
07:20	44.1	44.1	44.1	88	40.8	2	4	270	0.00	29.963 
07:25	43.9	43.9	43.9	87	40.3	2	6	270	0.00	29.970 
07:30	43.5	43.5	43.5	86	39.6	3	6	270	0.00	29.971 
07:35	43.2	43.2	43.2	85	39.0	2	6	270	0.00	29.972 
07:40	42.9	42.9	42.9	85	38.7	3	7	270	0.00	29.974 
07:45	42.6	42.6	42.6	86	38.7	2	5	292	0.00	29.981 
07:50	42.2	42.2	42.2	86	38.3	3	6	270	0.00	29.981 
07:55	41.9	41.9	41.9	86	38.0	1	4	315	0.00	29.985 
08:00	41.6	41.6	41.6	86	37.7	1	2	248	0.00	29.988 
08:05	41.8	41.8	41.8	87	38.2	1	4	338	0.00	29.991 
08:10	41.9	41.9	41.9	87	38.3	2	3	270	0.00	29.994 
08:15	42.1	42.1	42.1	86	38.2	2	7	270	0.00	30.002 
08:20	42.2	42.2	42.2	84	37.7	3	7	270	0.00	30.003 
08:25	42.1	42.1	42.1	83	37.3	1	4	270	0.00	30.006 
08:30	41.6	41.6	41.6	82	36.5	2	4	270	0.00	30.008 
08:35	41.3	41.3	41.3	83	36.5	2	7	270	0.00	30.008 
08:40	41.3	41.3	41.3	83	36.5	3	5	270	0.00	30.015 
08:45	41.6	41.6	41.6	83	36.8	2	5	270	0.00	30.019 
08:50	42.1	42.1	42.1	82	37.0	2	7	270	0.00	30.021 
08:55	42.6	42.6	42.6	81	37.2	2	5	270	0.00	30.021 
09:00	43.2	43.2	43.2	79	37.1	2	6	338	0.00	30.022 
09:05	43.6	43.6	43.6	78	37.2	3	7	270	0.00	30.022 
09:10	43.9	43.9	43.9	77	37.2	3	6	270	0.00	30.023 
09:15	43.8	43.8	43.8	77	37.1	2	5	270	0.00	30.027 
09:20	43.2	43.2	43.2	77	36.5	3	6	270	0.00	30.030 
09:25	42.9	42.9	42.9	77	36.2	2	6	270	0.00	30.036 
09:30	42.6	42.6	42.6	77	35.9	3	6	270	0.00	30.039 
09:35	42.5	42.5	42.5	77	35.8	3	7	270	0.00	30.039 
09:40	42.5	42.5	42.5	77	35.8	2	5	270	0.00	30.040 
09:45	42.6	42.6	42.6	78	36.2	2	4	248	0.00	30.042 
09:50	42.9	42.9	42.9	76	35.9	3	5	270	0.00	30.044 
09:55	42.9	42.9	42.9	76	35.9	3	5	270	0.00	30.047 
10:00	43.3	43.3	43.3	76	36.3	2	6	248	0.00	30.051 
10:05	43.6	43.6	43.6	75	36.2	2	5	270	0.00	30.047 
10:10	44.1	44.1	44.1	73	36.0	2	4	270	0.00	30.048 
10:15	44.9	44.9	44.9	73	36.8	2	6	270	0.00	30.048 
10:20	45.7	45.7	45.7	71	36.8	3	7	315	0.00	30.049 
10:25	45.7	45.7	45.7	69	36.1	2	4	270	0.00	30.048 
10:30	45.1	45.1	45.1	69	35.5	2	5	292	0.00	30.050 
10:35	44.5	44.5	44.5	70	35.3	3	6	338	0.00	30.050 
10:40	45.1	45.1	45.1	72	36.6	2	5	270	0.00	30.051 
10:45	45.7	45.7	45.7	69	36.1	2	6	270	0.00	30.050 
10:50	46.2	46.2	46.2	69	36.6	3	5	248	0.00	30.050 
10:55	46.2	44.5	46.2	67	35.9	4	10	270	0.00	30.057 
11:00	46.8	46.8	46.8	67	36.4	3	7	270	0.00	30.057 
11:05	47.0	47.0	47.0	67	36.6	3	5	270	0.00	30.057 
11:10	47.3	47.3	47.3	67	36.9	2	5	248	0.00	30.056 
11:15	47.6	47.6	47.6	64	36.0	3	6	270	0.00	30.056 
11:20	47.4	47.4	47.4	65	36.2	2	5	270	0.00	30.058 
11:25	46.8	45.2	46.8	65	35.7	4	11	270	0.00	30.061 
11:30	46.8	46.8	46.8	65	35.7	3	14	270	0.00	30.062 
11:35	47.0	47.0	47.0	65	35.9	3	10	270	0.00	30.062 
11:40	47.3	45.8	47.3	65	36.1	4	10	270	0.00	30.062 
11:45	47.6	47.6	47.6	63	35.6	3	11	270	0.00	30.061 
11:50	48.0	46.6	48.0	64	36.4	4	9	270	0.00	30.061 
11:55	48.3	48.3	48.3	65	37.1	3	8	270	0.00	30.067 
12:00	48.8	48.8	48.8	62	36.4	3	8	270	0.00	30.065 
12:05	48.9	48.9	48.9	64	37.3	2	5	270	0.00	30.065 
12:10	49.4	49.4	49.4	62	36.9	3	7	248	0.00	30.062 
12:15	49.9	49.9	49.9	59	36.1	3	7	270	0.00	30.068 
12:20	50.1	50.1	50.1	62	37.6	4	11	270	0.00	30.068 
12:25	50.2	50.2	50.2	61	37.3	4	11	270	0.00	30.069 
12:30	50.8	50.8	50.8	59	37.0	2	5	270	0.00	30.068 
12:35	51.1	51.1	51.1	57	36.4	3	9	270	0.00	30.068 
12:40	51.4	51.4	51.4	58	37.1	3	9	248	0.00	30.071 
12:45	51.7	51.7	51.7	56	36.5	3	6	270	0.00	30.071 
12:50	51.7	51.7	51.7	55	36.1	3	6	270	0.00	30.071 
12:55	51.9	51.9	51.9	51	34.3	3	7	270	0.00	30.072 
13:00	52.0	52.0	52.0	53	35.4	2	5	270	0.00	30.071 
13:05	52.0	52.0	52.0	51	34.4	4	9	270	0.00	30.071 
13:10	52.8	52.8	52.8	48	33.7	3	6	270	0.00	30.071 
13:15	52.6	52.6	52.6	50	34.5	3	9	270	0.00	30.070 
13:20	52.8	52.8	52.8	50	34.7	2	5	270	0.00	30.071 
13:25	53.2	53.2	53.2	48	34.0	2	4	292	0.00	30.070 
13:30	53.2	53.2	53.2	42	30.7	3	6	315	0.00	30.071 
13:35	53.1	53.1	53.1	46	32.9	3	10	270	0.00	30.071 
13:40	53.1	53.1	53.1	42	30.6	3	7	338	0.00	30.069 
13:45	52.9	52.9	52.9	45	32.1	2	5	338	0.00	30.070 
13:50	53.3	53.3	53.3	46	33.1	3	6	270	0.00	30.070 
13:55	53.1	53.1	53.1	43	31.2	3	7	292	0.00	30.071 
14:00	52.8	52.8	52.8	42	30.3	3	6	338	0.00	30.070 
14:05	53.2	53.2	53.2	45	32.4	3	7	292	0.00	30.072 
14:10	53.6	53.6	53.6	47	33.9	2	5	338	0.00	30.072 
14:15	53.9	53.9	53.9	45	33.1	3	7	270	0.00	30.072 
14:20	54.1	54.1	54.1	41	30.9	3	8	270	0.00	30.073 
14:25	53.6	53.6	53.6	42	31.1	3	7	292	0.00	30.072 
14:30	53.5	53.5	53.5	45	32.7	3	7	270	0.00	30.071 
14:35	53.5	53.5	53.5	44	32.1	3	6	270	0.00	30.072 
14:40	53.5	53.5	53.5	42	31.0	3	6	270	0.00	30.072 
14:45	53.3	53.3	53.3	41	30.2	3	6	315	0.00	30.075 
14:50	53.3	53.3	53.3	44	31.9	3	5	338	0.00	30.075 
14:55	53.8	53.8	53.8	43	31.8	3	5	270	0.00	30.074 
15:00	53.8	53.8	53.8	43	31.8	2	6	270	0.00	30.075 
15:05	54.2	54.2	54.2	44	32.8	3	5	270	0.00	30.077 
15:10	54.2	54.2	54.2	43	32.2	3	11	270	0.00	30.083 
15:15	54.1	54.1	54.1	41	30.9	3	10	270	0.00	30.086 
15:20	54.2	54.2	54.2	42	31.6	3	7	270	0.00	30.087 
15:25	53.5	53.5	53.5	42	31.0	3	6	270	0.00	30.088 
15:30	53.5	53.5	53.5	45	32.7	2	9	270	0.00	30.089 
15:35	53.9	53.9	53.9	46	33.6	2	7	270	0.00	30.089 
15:40	54.1	54.1	54.1	45	33.2	3	9	270	0.00	30.091 
15:45	53.8	53.8	53.8	44	32.4	3	9	270	0.00	30.091 
15:50	53.2	53.2	53.2	46	33.0	3	10	270	0.00	30.096 
15:55	53.1	53.1	53.1	46	32.9	3	7	270	0.00	30.095 
16:00	52.9	52.9	52.9	46	32.7	2	6	270	0.00	30.100 
16:05	53.1	53.1	53.1	44	31.8	4	8	270	0.00	30.106 
16:10	53.1	53.1	53.1	45	32.3	2	6	270	0.00	30.105 
16:15	53.1	53.1	53.1	44	31.8	2	5	292	0.00	30.107 
16:20	52.9	52.9	52.9	45	32.1	3	7	270	0.00	30.107 
16:25	52.9	52.9	52.9	46	32.7	3	6	270	0.00	30.109 
16:30	52.8	52.8	52.8	46	32.6	2	7	270	0.00	30.110 
16:35	52.6	52.6	52.6	46	32.4	2	10	270	0.00	30.116 
16:40	52.5	52.5	52.5	46	32.3	3	10	270	0.00	30.117 
16:45	52.5	52.5	52.5	44	31.2	3	6	270	0.00	30.119 
16:50	52.3	52.3	52.3	45	31.6	2	8	292	0.00	30.121 
16:55	52.3	52.3	52.3	46	32.1	3	6	270	0.00	30.123 
17:00	52.3	52.3	52.3	41	29.3	3	6	270	0.00	30.124 
17:05	52.2	52.2	52.2	41	29.2	2	6	292	0.00	30.126 
17:10	52.2	52.2	52.2	36	26.1	3	8	270	0.00	30.128 
17:15	52.3	52.3	52.3	34	24.8	3	6	270	0.00	30.130 
17:20	52.0	52.0	52.0	35	25.2	3	6	270	0.00	30.136 
17:25	52.0	52.0	52.0	36	25.9	2	5	292	0.00	30.140 
17:30	51.7	51.7	51.7	35	24.9	2	7	270	0.00	30.144 
17:35	51.3	51.3	51.3	33	23.2	2	4	292	0.00	30.148 
17:40	50.8	50.8	50.8	33	22.7	2	5	270	0.00	30.152 
17:45	50.4	50.4	50.4	33	22.4	3	5	270	0.00	30.156 
17:50	50.1	50.1	50.1	34	22.8	2	6	270	0.00	30.158 
17:55	49.6	49.6	49.6	35	23.1	2	4	338	0.00	30.159 
18:00	49.4	49.4	49.4	37	24.2	1	3	270	0.00	30.162 
18:05	49.2	49.2	49.2	38	24.7	1	3	338	0.00	30.167 
18:10	48.9	48.9	48.9	38	24.4	1	3	315	0.00	30.169 
18:15	48.6	48.6	48.6	39	24.8	1	2	315	0.00	30.171 
18:20	48.3	48.3	48.3	39	24.5	1	3	338	0.00	30.175 
18:25	48.0	48.0	48.0	40	24.8	0	2	270	0.00	30.178 
18:30	47.7	47.7	47.7	40	24.6	1	3	315	0.00	30.178 
18:35	47.4	47.4	47.4	41	24.9	0	1	315	0.00	30.179 
18:40	47.0	47.0	47.0	42	25.1	0	2	315	0.00	30.179 
18:45	46.5	46.5	46.5	43	25.2	0	2	270	0.00	30.180 
18:50	46.2	46.2	46.2	43	25.0	0	2	270	0.00	30.184 
18:55	46.0	46.0	46.0	44	25.3	0	1	270	0.00	30.188 
19:00	45.7	45.7	45.7	44	25.0	0	1	270	0.00	30.191 
19:05	45.2	45.2	45.2	45	25.1	0	2	270	0.00	30.196 
19:10	44.9	44.9	44.9	45	24.9	0	1	270	0.00	30.197 
19:15	44.9	44.9	44.9	42	23.2	1	2	270	0.00	30.198 
19:20	44.8	44.8	44.8	42	23.1	0	2	270	0.00	30.200 
19:25	44.8	44.8	44.8	40	22.0	1	3	248	0.00	30.200 
19:30	44.6	44.6	44.6	40	21.8	1	2	248	0.00	30.201 
19:35	44.5	44.5	44.5	41	22.3	1	3	225	0.00	30.203 
19:40	44.1	44.1	44.1	41	21.9	0	2	248	0.00	30.207 
19:45	43.8	43.8	43.8	42	22.2	0	1	248	0.00	30.208 
19:50	43.5	43.5	43.5	42	21.9	0	1	248	0.00	30.212 
19:55	43.1	43.1	43.1	43	22.1	0	1	248	0.00	30.215 
20:00	42.6	42.6	42.6	45	22.8	0	0	---	0.00	30.215 
20:05	42.1	42.1	42.1	45	22.3	0	0	---	0.00	30.216 
20:10	41.5	41.5	41.5	46	22.3	0	0	---	0.00	30.217 
20:15	41.1	41.1	41.1	48	22.9	0	0	---	0.00	30.218 
20:20	40.6	40.6	40.6	49	23.0	0	0	---	0.00	30.221 
20:25	40.2	40.2	40.2	50	23.1	0	0	---	0.00	30.226 
20:30	39.9	39.9	39.9	50	22.8	0	0	---	0.00	30.229 
20:35	39.6	39.6	39.6	50	22.5	0	0	---	0.00	30.231 
20:40	39.6	39.6	39.6	50	22.5	0	1	248	0.00	30.234 
20:45	39.9	39.9	39.9	50	22.8	0	1	248	0.00	30.235 
20:50	39.9	39.9	39.9	50	22.8	0	1	248	0.00	30.237 
20:55	39.9	39.9	39.9	50	22.8	0	1	248	0.00	30.241 
21:00	39.8	39.8	39.8	50	22.7	0	1	248	0.00	30.244 
21:05	39.6	39.6	39.6	50	22.5	0	0	---	0.00	30.248 
21:10	39.5	39.5	39.5	50	22.4	0	1	248	0.00	30.249 
21:15	39.3	39.3	39.3	50	22.2	0	0	---	0.00	30.250 
21:20	39.3	39.3	39.3	50	22.2	0	0	---	0.00	30.253 
21:25	39.2	39.2	39.2	50	22.1	0	0	---	0.00	30.254 
21:30	39.2	39.2	39.2	50	22.1	0	1	248	0.00	30.256 
21:35	39.1	39.1	39.1	51	22.5	0	1	248	0.00	30.259 
21:40	38.9	38.9	38.9	51	22.3	0	0	---	0.00	30.261 
21:45	38.8	38.8	38.8	51	22.2	0	0	---	0.00	30.262 
21:50	38.6	38.6	38.6	51	22.1	0	1	248	0.00	30.263 
21:55	38.3	38.3	38.3	52	22.2	0	1	248	0.00	30.265 
22:00	38.2	38.2	38.2	52	22.1	0	1	248	0.00	30.268 
22:05	37.9	37.9	37.9	53	22.3	0	0	---	0.00	30.265 
22:10	37.6	37.6	37.6	54	22.5	0	0	---	0.00	30.268 
22:15	37.0	37.0	37.0	54	21.9	0	0	---	0.00	30.274 
22:20	36.5	36.5	36.5	56	22.3	0	0	---	0.00	30.275 
22:25	35.8	35.8	35.8	57	22.1	0	0	---	0.00	30.278 
22:30	35.2	35.2	35.2	58	21.9	0	0	---	0.00	30.278 
22:35	34.7	34.7	34.7	59	21.9	0	0	---	0.00	30.280 
22:40	34.4	34.4	34.4	60	22.0	0	0	---	0.00	30.280 
22:45	34.1	34.1	34.1	60	21.7	0	0	---	0.00	30.282 
22:50	33.5	33.5	33.5	62	21.9	0	0	---	0.00	30.282 
22:55	33.1	33.1	33.1	63	21.9	0	0	---	0.00	30.282 
23:00	32.7	32.7	32.7	64	21.9	0	0	---	0.00	30.283 
23:05	32.1	32.1	32.1	66	22.0	0	0	---	0.00	30.283 
23:10	31.6	31.6	31.6	68	22.3	0	0	---	0.00	30.284 
23:15	31.2	31.2	31.2	68	21.9	0	0	---	0.00	30.285 
23:20	30.7	30.7	30.7	69	21.8	0	0	---	0.00	30.286 
23:25	30.3	30.3	30.3	70	21.7	0	0	---	0.00	30.290 
23:30	30.0	30.0	30.0	71	21.8	0	0	---	0.00	30.289 
23:35	29.7	29.7	29.7	72	21.8	0	0	---	0.00	30.289 
23:40	29.4	29.4	29.4	73	21.8	0	0	---	0.00	30.289 
23:45	29.3	29.3	29.3	73	21.7	0	0	---	0.00	30.288 
23:50	29.1	29.1	29.1	74	21.9	0	0	---	0.00	30.289 
23:55	29.0	29.0	29.0	74	21.8	0	0	---	0.00	30.292 

CoCoRaHS
IN-AL-39
A2 Web Hosting
Creative Commons License
GoDaddy
Look for:

loaded 2017-12-13 19:38:48 • last modified 2010-11-18 10:43:29
Privacy PolicyDisclaimer
• wx.awcolley.com is powered by PmWiki v.2002016 •
• all content (unless otherwise noted) © 2017 A W Colley